Time;durP1;ratioP1;P1;durP2;ratioP2;P2;SDS_P1;SDS_P2;PMS_P1;PMS_P2;Temp;Humidity;BMP_temperature;BMP_pressure;BME280_temperature;BME280_humidity;BME280_pressure;Samples;Min_cycle;Max_cycle;Signal;HPM_P1;HPM_P2
2022/02/11 00:09:10;;;;;;;0.73;0.70;;;;;;;;;;5038884;28;20098;-85
2022/02/11 00:11:38;;;;;;;0.25;0.25;;;;;;;;;;5031015;28;20780;-86
2022/02/11 00:14:05;;;;;;;0.30;0.30;;;;;;;;;;5031765;28;20041;-86
2022/02/11 00:16:34;;;;;;;0.47;0.45;;;;;;;;;;5043287;28;20507;-86
2022/02/11 00:19:00;;;;;;;1.52;0.68;;;;;;;;;;5036234;28;20524;-86
2022/02/11 00:21:28;;;;;;;0.47;0.47;;;;;;;;;;5043842;28;20035;-86
2022/02/11 00:23:54;;;;;;;1.27;0.73;;;;;;;;;;5032954;28;20453;-85
2022/02/11 00:26:20;;;;;;;0.63;0.63;;;;;;;;;;5044184;28;20032;-86
2022/02/11 00:33:51;;;;;;;1.10;0.75;;;;;;;;;;5044328;28;20550;-86
2022/02/11 00:36:18;;;;;;;0.20;0.20;;;;;;;;;;5041956;28;20045;-86
2022/02/11 01:04:19;;;;;;;5.68;0.95;;;;;;;;;;4921843;29;20685;-89
2022/02/11 01:06:29;;;;;;;0.40;0.40;;;;;;;;;;4929373;29;20877;-89
2022/02/11 01:08:55;;;;;;;1.33;1.08;;;;;;;;;;4930358;29;20087;-87
2022/02/11 01:11:34;;;;;;;0.35;0.35;;;;;;;;;;4929502;29;20036;-87
2022/02/11 01:14:00;;;;;;;0.30;0.30;;;;;;;;;;4903991;29;20036;-87
2022/02/11 01:16:36;;;;;;;0.20;0.20;;;;;;;;;;4922104;29;20072;-87
2022/02/11 01:19:19;;;;;;;0.47;0.47;;;;;;;;;;4926614;29;20047;-88
2022/02/11 01:21:58;;;;;;;0.45;0.45;;;;;;;;;;4938431;29;20035;-88
2022/02/11 01:51:23;;;;;;;0.50;0.50;;;;;;;;;;4950067;28;20541;-86
2022/02/11 02:15:28;;;;;;;0.30;0.30;;;;;;;;;;5029160;28;20033;-87
2022/02/11 02:23:05;;;;;;;0.35;0.35;;;;;;;;;;5045702;28;20074;-82
2022/02/11 02:25:42;;;;;;;0.10;0.10;;;;;;;;;;5043904;28;20036;-82
2022/02/11 02:39:18;;;;;;;0.20;0.20;;;;;;;;;;4952715;28;20027;-83
2022/02/11 02:58:14;;;;;;;5.07;2.05;;;;;;;;;;4947420;28;20655;-84
2022/02/11 03:49:55;;;;;;;0.60;0.38;;;;;;;;;;5043076;28;20056;-84
2022/02/11 03:57:55;;;;;;;0.28;0.28;;;;;;;;;;5043947;28;20032;-84
2022/02/11 04:55:04;;;;;;;0.43;0.43;;;;;;;;;;5027498;28;20111;-85
2022/02/11 05:00:15;;;;;;;0.45;0.45;;;;;;;;;;5031029;28;20082;-84
2022/02/11 05:02:51;;;;;;;0.55;0.55;;;;;;;;;;5031972;28;20090;-86
2022/02/11 05:05:17;;;;;;;0.30;0.30;;;;;;;;;;5037394;28;20036;-88
2022/02/11 05:07:43;;;;;;;0.40;0.40;;;;;;;;;;5042909;28;20033;-85
2022/02/11 05:10:11;;;;;;;0.20;0.20;;;;;;;;;;5040268;28;20079;-85
2022/02/11 05:12:37;;;;;;;0.10;0.10;;;;;;;;;;5040926;28;20128;-88
2022/02/11 05:15:08;;;;;;;0.20;0.20;;;;;;;;;;5039814;28;20500;-88
2022/02/11 05:17:35;;;;;;;0.43;0.43;;;;;;;;;;5028220;28;20033;-86
2022/02/11 05:20:01;;;;;;;0.10;0.10;;;;;;;;;;5027529;28;20040;-86
2022/02/11 05:22:27;;;;;;;0.50;0.50;;;;;;;;;;5035644;28;20065;-86
2022/02/11 05:24:53;;;;;;;0.20;0.20;;;;;;;;;;5033946;28;20572;-85
2022/02/11 05:27:19;;;;;;;0.30;0.30;;;;;;;;;;5030606;28;20060;-86
2022/02/11 05:29:45;;;;;;;0.75;0.55;;;;;;;;;;5025547;28;20084;-86
2022/02/11 05:32:11;;;;;;;0.38;0.38;;;;;;;;;;5030378;28;20053;-86
2022/02/11 05:34:37;;;;;;;0.38;0.38;;;;;;;;;;5029385;28;20037;-86
2022/02/11 05:37:03;;;;;;;0.10;0.10;;;;;;;;;;5037223;28;20473;-85
2022/02/11 05:39:29;;;;;;;0.87;0.87;;;;;;;;;;5042393;28;20101;-87
2022/02/11 05:41:55;;;;;;;0.27;0.27;;;;;;;;;;5022388;28;20542;-86
2022/02/11 05:44:21;;;;;;;0.10;0.10;;;;;;;;;;5027739;28;20036;-87
2022/02/11 05:46:47;;;;;;;1.50;0.97;;;;;;;;;;5015712;28;20511;-87
2022/02/11 05:49:13;;;;;;;1.15;1.15;;;;;;;;;;5035068;28;20813;-87
2022/02/11 05:51:39;;;;;;;0.40;0.40;;;;;;;;;;5011687;28;20033;-84
2022/02/11 05:54:05;;;;;;;0.50;0.50;;;;;;;;;;5009150;28;20056;-89
2022/02/11 05:56:31;;;;;;;0.50;0.50;;;;;;;;;;5039238;28;20075;-87
2022/02/11 05:58:58;;;;;;;0.40;0.40;;;;;;;;;;5041385;28;20032;-83
2022/02/11 06:01:24;;;;;;;1.95;1.35;;;;;;;;;;5036165;28;20275;-87
2022/02/11 06:03:50;;;;;;;0.63;0.63;;;;;;;;;;5037975;28;20031;-88
2022/02/11 06:06:16;;;;;;;0.17;0.17;;;;;;;;;;5041197;28;20033;-85
2022/02/11 06:08:42;;;;;;;0.43;0.43;;;;;;;;;;5033985;28;20122;-85
2022/02/11 06:11:08;;;;;;;0.50;0.50;;;;;;;;;;5028977;28;20775;-85
2022/02/11 06:13:34;;;;;;;0.40;0.40;;;;;;;;;;5040033;28;20056;-84
2022/02/11 06:16:01;;;;;;;1.23;0.60;;;;;;;;;;5033378;28;20055;-86
2022/02/11 06:18:27;;;;;;;0.20;0.20;;;;;;;;;;5034565;28;20283;-84
2022/02/11 06:20:53;;;;;;;5.20;1.20;;;;;;;;;;5030379;28;20044;-87
2022/02/11 06:23:19;;;;;;;0.40;0.40;;;;;;;;;;5032782;28;20033;-87
2022/02/11 06:25:46;;;;;;;0.10;0.10;;;;;;;;;;5035589;28;20029;-89
2022/02/11 06:28:14;;;;;;;0.20;0.20;;;;;;;;;;5031532;28;20033;-88
2022/02/11 06:30:40;;;;;;;0.60;0.60;;;;;;;;;;5031335;28;20046;-89
2022/02/11 06:33:06;;;;;;;0.10;0.10;;;;;;;;;;5028923;28;20026;-86
2022/02/11 06:35:34;;;;;;;0.57;0.57;;;;;;;;;;5029097;28;20200;-87
2022/02/11 06:38:01;;;;;;;0.10;0.10;;;;;;;;;;5029569;28;20101;-84
2022/02/11 06:40:30;;;;;;;0.10;0.10;;;;;;;;;;5033204;28;20056;-88
2022/02/11 06:42:57;;;;;;;0.22;0.22;;;;;;;;;;5038385;28;20032;-87
2022/02/11 06:45:24;;;;;;;0.10;0.10;;;;;;;;;;5035169;28;20079;-87
2022/02/11 06:47:50;;;;;;;0.10;0.10;;;;;;;;;;5037664;28;20488;-85
2022/02/11 06:50:16;;;;;;;0.75;0.70;;;;;;;;;;5041036;28;20068;-83
2022/02/11 06:52:43;;;;;;;0.20;0.20;;;;;;;;;;5042313;28;20048;-88
2022/02/11 06:55:09;;;;;;;0.10;0.10;;;;;;;;;;5028741;28;20041;-87
2022/02/11 06:57:35;;;;;;;1.15;0.50;;;;;;;;;;5039314;28;20029;-86
2022/02/11 07:00:02;;;;;;;0.10;0.10;;;;;;;;;;5045887;28;20454;-91
2022/02/11 07:02:29;;;;;;;0.10;0.10;;;;;;;;;;5046602;28;20032;-87
2022/02/11 07:04:55;;;;;;;;;;;;;;;;;;5039839;28;20031;-86
2022/02/11 07:07:21;;;;;;;0.10;0.10;;;;;;;;;;5012181;28;20547;-88
2022/02/11 07:09:49;;;;;;;0.20;0.20;;;;;;;;;;5038248;28;20416;-88
2022/02/11 07:12:16;;;;;;;0.10;0.10;;;;;;;;;;5045633;28;20025;-83
2022/02/11 07:14:42;;;;;;;0.10;0.10;;;;;;;;;;5041346;28;20061;-86
2022/02/11 07:17:09;;;;;;;0.75;0.73;;;;;;;;;;5036614;28;21220;-84
2022/02/11 07:19:35;;;;;;;0.10;0.10;;;;;;;;;;5042774;28;20027;-81
2022/02/11 07:22:02;;;;;;;0.10;0.10;;;;;;;;;;5034515;28;20112;-85
2022/02/11 07:24:28;;;;;;;0.10;0.10;;;;;;;;;;5035579;28;20044;-87
2022/02/11 07:26:55;;;;;;;0.10;0.10;;;;;;;;;;5037773;28;20550;-87
2022/02/11 07:29:21;;;;;;;0.10;0.10;;;;;;;;;;5040613;28;20044;-85
2022/02/11 07:31:47;;;;;;;0.17;0.17;;;;;;;;;;5026039;28;20227;-84
2022/02/11 07:34:13;;;;;;;0.20;0.20;;;;;;;;;;5027969;28;20088;-84
2022/02/11 07:36:39;;;;;;;0.10;0.10;;;;;;;;;;5005326;28;20042;-85
2022/02/11 07:39:05;;;;;;;0.20;0.20;;;;;;;;;;5020765;28;20164;-85
2022/02/11 07:41:32;;;;;;;0.10;0.10;;;;;;;;;;5030115;28;20030;-88
2022/02/11 07:43:58;;;;;;;0.10;0.10;;;;;;;;;;5027587;28;20485;-87
2022/02/11 07:46:24;;;;;;;0.45;0.45;;;;;;;;;;5046375;28;20037;-88
2022/02/11 07:48:50;;;;;;;0.30;0.30;;;;;;;;;;5033190;28;20041;-88
2022/02/11 07:51:16;;;;;;;0.10;0.10;;;;;;;;;;5028695;28;20501;-88
2022/02/11 07:53:45;;;;;;;0.10;0.10;;;;;;;;;;5030658;28;20029;-89
2022/02/11 07:56:11;;;;;;;0.30;0.30;;;;;;;;;;5028315;28;20037;-88
2022/02/11 07:58:38;;;;;;;3.95;0.98;;;;;;;;;;5026845;28;20034;-89
2022/02/11 08:01:04;;;;;;;0.55;0.55;;;;;;;;;;5034748;28;20040;-88
2022/02/11 08:03:30;;;;;;;0.10;0.10;;;;;;;;;;5029820;28;20069;-89
2022/02/11 08:05:56;;;;;;;0.10;0.10;;;;;;;;;;5024131;28;20030;-80
2022/02/11 08:08:26;;;;;;;0.60;0.52;;;;;;;;;;5026165;28;20032;-80
2022/02/11 08:10:53;;;;;;;0.10;0.10;;;;;;;;;;5025192;28;20037;-80
2022/02/11 08:13:20;;;;;;;0.20;0.20;;;;;;;;;;5028370;28;20030;-80
2022/02/11 08:15:46;;;;;;;0.25;0.25;;;;;;;;;;5025883;28;20762;-80
2022/02/11 08:18:12;;;;;;;0.10;0.10;;;;;;;;;;5025413;28;20033;-80
2022/02/11 08:20:38;;;;;;;0.10;0.10;;;;;;;;;;5025751;28;20276;-80
2022/02/11 08:23:04;;;;;;;1.97;1.00;;;;;;;;;;5025025;28;20025;-80
2022/02/11 08:25:33;;;;;;;0.10;0.10;;;;;;;;;;5025886;28;20037;-80
2022/02/11 08:28:00;;;;;;;0.28;0.28;;;;;;;;;;5024849;28;20040;-80
2022/02/11 08:30:26;;;;;;;0.67;0.40;;;;;;;;;;5025657;28;20045;-80
2022/02/11 08:32:52;;;;;;;0.10;0.10;;;;;;;;;;5025436;28;20117;-79
2022/02/11 08:35:18;;;;;;;0.10;0.10;;;;;;;;;;5025451;28;20124;-80
2022/02/11 08:37:44;;;;;;;0.20;0.20;;;;;;;;;;5024544;28;20017;-80
2022/02/11 08:40:11;;;;;;;0.10;0.10;;;;;;;;;;5025777;28;20283;-80
2022/02/11 08:42:37;;;;;;;;;;;;;;;;;;5025390;28;20037;-80
2022/02/11 08:45:03;;;;;;;1999.90;999.90;;;;;;;;;;5025147;28;19917;-80
2022/02/11 08:47:32;;;;;;;559.97;78.43;;;;;;;;;;5025129;28;20389;-79
2022/02/11 08:49:59;;;;;;;581.30;325.88;;;;;;;;;;5024449;28;20037;-80
2022/02/11 08:52:27;;;;;;;1999.90;999.90;;;;;;;;;;5026385;28;20562;-79
2022/02/11 08:54:53;;;;;;;1999.90;999.90;;;;;;;;;;5024778;28;20041;-80
2022/02/11 08:57:19;;;;;;;37.60;15.17;;;;;;;;;;5024728;28;20103;-80
2022/02/11 08:59:45;;;;;;;99.53;89.20;;;;;;;;;;5026329;28;20037;-80
2022/02/11 09:02:12;;;;;;;230.45;210.80;;;;;;;;;;5023677;28;20095;-80
2022/02/11 09:04:40;;;;;;;0.20;0.20;;;;;;;;;;5021770;28;20064;-80
2022/02/11 09:07:06;;;;;;;0.20;0.20;;;;;;;;;;5025972;28;20086;-80
2022/02/11 09:09:32;;;;;;;0.20;0.20;;;;;;;;;;5024378;28;20394;-80
2022/02/11 09:11:58;;;;;;;0.20;0.20;;;;;;;;;;5006631;28;20048;-80
2022/02/11 09:14:24;;;;;;;0.10;0.10;;;;;;;;;;5008712;28;20040;-80
2022/02/11 09:16:50;;;;;;;0.10;0.10;;;;;;;;;;5023123;28;20021;-80
2022/02/11 09:19:17;;;;;;;0.10;0.10;;;;;;;;;;5024482;28;20029;-79
2022/02/11 09:21:43;;;;;;;0.10;0.10;;;;;;;;;;5025688;28;20939;-80
2022/02/11 09:24:09;;;;;;;0.10;0.10;;;;;;;;;;5024397;28;20103;-80
2022/02/11 09:26:35;;;;;;;0.10;0.10;;;;;;;;;;5024655;28;20518;-80
2022/02/11 09:29:02;;;;;;;0.10;0.10;;;;;;;;;;5023530;28;20775;-81
2022/02/11 09:31:28;;;;;;;0.10;0.10;;;;;;;;;;5024251;28;20069;-80
2022/02/11 09:33:55;;;;;;;0.10;0.10;;;;;;;;;;5024173;28;20030;-80
2022/02/11 09:36:22;;;;;;;0.10;0.10;;;;;;;;;;5023382;28;20418;-80
2022/02/11 09:38:48;;;;;;;0.20;0.20;;;;;;;;;;5024022;28;20040;-80
2022/02/11 09:41:15;;;;;;;0.13;0.13;;;;;;;;;;5024304;28;20025;-80
2022/02/11 09:43:41;;;;;;;0.20;0.20;;;;;;;;;;5023455;28;20029;-80
2022/02/11 09:46:08;;;;;;;0.20;0.20;;;;;;;;;;5025296;28;20497;-80
2022/02/11 09:48:34;;;;;;;0.40;0.40;;;;;;;;;;5024083;28;20029;-80
2022/02/11 09:51:01;;;;;;;0.10;0.10;;;;;;;;;;5008383;28;20037;-80
2022/02/11 09:53:28;;;;;;;0.20;0.20;;;;;;;;;;5006476;28;20272;-80
2022/02/11 09:55:55;;;;;;;0.17;0.17;;;;;;;;;;5023078;28;20368;-80
2022/02/11 09:58:21;;;;;;;0.20;0.20;;;;;;;;;;5023570;28;20919;-80
2022/02/11 10:00:48;;;;;;;0.10;0.10;;;;;;;;;;5024144;28;20033;-80
2022/02/11 10:03:15;;;;;;;0.10;0.10;;;;;;;;;;5023839;28;20040;-80
2022/02/11 10:05:41;;;;;;;0.20;0.20;;;;;;;;;;5023934;28;20092;-80
2022/02/11 10:08:07;;;;;;;0.10;0.10;;;;;;;;;;5023174;28;20057;-80
2022/02/11 10:10:39;;;;;;;0.20;0.20;;;;;;;;;;5023706;28;20552;-80
2022/02/11 10:13:26;;;;;;;0.30;0.30;;;;;;;;;;5002456;28;20034;-80
2022/02/11 10:15:56;;;;;;;0.20;0.20;;;;;;;;;;5019214;28;20041;-80
2022/02/11 10:18:26;;;;;;;0.30;0.30;;;;;;;;;;5025330;28;20033;-80
2022/02/11 10:21:12;;;;;;;0.20;0.20;;;;;;;;;;5023857;28;20048;-80
2022/02/11 10:23:41;;;;;;;0.30;0.30;;;;;;;;;;5009314;28;20025;-80
2022/02/11 10:26:11;;;;;;;0.22;0.22;;;;;;;;;;5022750;28;20025;-80
2022/02/11 10:28:38;;;;;;;0.20;0.20;;;;;;;;;;5023559;28;20052;-80
2022/02/11 10:31:07;;;;;;;0.20;0.20;;;;;;;;;;5027955;28;20053;-81
2022/02/11 10:34:00;;;;;;;0.20;0.20;;;;;;;;;;5028474;28;20699;-81
2022/02/11 10:36:27;;;;;;;0.20;0.20;;;;;;;;;;5023796;28;20466;-80
2022/02/11 10:39:20;;;;;;;0.20;0.20;;;;;;;;;;5028720;28;20129;-80
2022/02/11 10:41:57;;;;;;;0.20;0.20;;;;;;;;;;5011100;28;20038;-80
2022/02/11 10:44:30;;;;;;;0.20;0.20;;;;;;;;;;5028184;28;20029;-80
2022/02/11 10:47:00;;;;;;;0.20;0.20;;;;;;;;;;5022081;28;20025;-80
2022/02/11 10:49:31;;;;;;;0.20;0.20;;;;;;;;;;5027015;28;20057;-80
2022/02/11 10:52:08;;;;;;;0.20;0.20;;;;;;;;;;5026807;28;20140;-80
2022/02/11 10:54:34;;;;;;;0.20;0.20;;;;;;;;;;5028294;28;20122;-80
2022/02/11 10:57:01;;;;;;;0.20;0.20;;;;;;;;;;5027384;28;20029;-80
2022/02/11 10:59:27;;;;;;;;;;;;;;;;;;5027166;28;20797;-80
2022/02/11 11:01:54;;;;;;;0.20;0.20;;;;;;;;;;5026262;28;19909;-80
2022/02/11 11:04:20;;;;;;;0.22;0.22;;;;;;;;;;5026935;28;20119;-80
2022/02/11 11:06:47;;;;;;;0.20;0.20;;;;;;;;;;5026738;28;20034;-80
2022/02/11 11:09:15;;;;;;;0.20;0.20;;;;;;;;;;5007198;28;20130;-80
2022/02/11 11:11:43;;;;;;;0.22;0.22;;;;;;;;;;5010092;28;20763;-80
2022/02/11 11:14:10;;;;;;;0.20;0.20;;;;;;;;;;5025159;28;20096;-80
2022/02/11 11:16:36;;;;;;;;;;;;;;;;;;5013115;28;20516;-80
2022/02/11 11:19:02;;;;;;;0.20;0.20;;;;;;;;;;5024888;28;19913;-80
2022/02/11 11:21:28;;;;;;;0.20;0.20;;;;;;;;;;5026403;28;20098;-79
2022/02/11 11:23:56;;;;;;;0.20;0.20;;;;;;;;;;5026704;28;20107;-80
2022/02/11 11:26:34;;;;;;;0.20;0.20;;;;;;;;;;5026692;28;20164;-80
2022/02/11 11:29:04;;;;;;;0.20;0.20;;;;;;;;;;5025698;28;20032;-80
2022/02/11 11:31:30;;;;;;;0.20;0.20;;;;;;;;;;5027241;28;20100;-80
2022/02/11 11:34:15;;;;;;;0.20;0.20;;;;;;;;;;5026866;28;20044;-80
2022/02/11 11:36:42;;;;;;;0.20;0.20;;;;;;;;;;5028227;28;20061;-80
2022/02/11 11:39:08;;;;;;;0.20;0.20;;;;;;;;;;5027965;28;20034;-80
2022/02/11 11:41:35;;;;;;;0.30;0.30;;;;;;;;;;5024449;28;20098;-77
2022/02/11 11:44:01;;;;;;;;;;;;;;;;;;5007849;28;20052;-78
2022/02/11 11:46:29;;;;;;;0.30;0.30;;;;;;;;;;5013529;28;20416;-78
2022/02/11 11:49:12;;;;;;;0.20;0.20;;;;;;;;;;5022151;28;20401;-78
2022/02/11 11:51:38;;;;;;;0.30;0.30;;;;;;;;;;5025179;28;20055;-77
2022/02/11 11:54:16;;;;;;;0.30;0.30;;;;;;;;;;5025345;28;20392;-78
2022/02/11 11:56:43;;;;;;;0.30;0.30;;;;;;;;;;5027581;28;20036;-78
2022/02/11 11:59:09;;;;;;;;;;;;;;;;;;5025301;28;20566;-77
2022/02/11 12:01:50;;;;;;;0.30;0.30;;;;;;;;;;5024698;28;19913;-78
2022/02/11 12:04:21;;;;;;;0.20;0.20;;;;;;;;;;5026860;28;20113;-78
2022/02/11 12:06:49;;;;;;;0.20;0.20;;;;;;;;;;5024671;28;20161;-78
2022/02/11 12:09:15;;;;;;;0.20;0.20;;;;;;;;;;5005613;28;20025;-77
2022/02/11 12:11:41;;;;;;;0.30;0.30;;;;;;;;;;5018787;28;20063;-77
2022/02/11 12:14:07;;;;;;;0.20;0.20;;;;;;;;;;5023624;28;20575;-78
2022/02/11 12:16:33;;;;;;;0.20;0.20;;;;;;;;;;5023498;28;20052;-78
2022/02/11 12:18:59;;;;;;;0.20;0.20;;;;;;;;;;5022975;28;20606;-79
2022/02/11 12:21:25;;;;;;;0.30;0.30;;;;;;;;;;5025109;28;20037;-78
2022/02/11 12:29:25;;;;;;;0.30;0.30;;;;;;;;;;5027828;28;20496;-78
2022/02/11 12:31:51;;;;;;;0.20;0.20;;;;;;;;;;5022327;28;20041;-79
2022/02/11 12:34:19;;;;;;;0.20;0.20;;;;;;;;;;5018626;28;20022;-79
2022/02/11 12:36:45;;;;;;;0.20;0.20;;;;;;;;;;5014776;28;20108;-78
2022/02/11 12:39:18;;;;;;;0.30;0.30;;;;;;;;;;5022311;28;20021;-79
2022/02/11 12:41:51;;;;;;;0.30;0.30;;;;;;;;;;5020744;28;20403;-79
2022/02/11 12:44:31;;;;;;;0.20;0.20;;;;;;;;;;5022324;28;20046;-79
2022/02/11 12:46:59;;;;;;;0.30;0.30;;;;;;;;;;5024249;28;20075;-81
2022/02/11 12:49:26;;;;;;;0.30;0.30;;;;;;;;;;5023779;28;20067;-81
2022/02/11 12:51:53;;;;;;;0.20;0.20;;;;;;;;;;5022990;28;20041;-81
2022/02/11 12:54:19;;;;;;;;;;;;;;;;;;5006003;28;20108;-81
2022/02/11 12:56:46;;;;;;;0.20;0.20;;;;;;;;;;5023517;28;19913;-81
2022/02/11 12:59:12;;;;;;;0.30;0.30;;;;;;;;;;5023698;28;20048;-81
2022/02/11 13:01:38;;;;;;;0.20;0.20;;;;;;;;;;5024123;28;20034;-82
2022/02/11 13:04:05;;;;;;;0.20;0.20;;;;;;;;;;5023501;28;20292;-82
2022/02/11 13:06:35;;;;;;;0.20;0.20;;;;;;;;;;5005410;28;20029;-82
2022/02/11 13:09:01;;;;;;;0.30;0.30;;;;;;;;;;5021951;28;20120;-82
2022/02/11 13:11:28;;;;;;;0.20;0.20;;;;;;;;;;5021867;28;20911;-81
2022/02/11 13:14:05;;;;;;;0.30;0.30;;;;;;;;;;5023395;28;20036;-82
2022/02/11 13:16:33;;;;;;;0.20;0.20;;;;;;;;;;5011174;28;20121;-81
2022/02/11 13:19:09;;;;;;;0.20;0.20;;;;;;;;;;5019997;28;20032;-82
2022/02/11 13:21:35;;;;;;;0.20;0.20;;;;;;;;;;5023495;28;20100;-81
2022/02/11 13:24:03;;;;;;;0.30;0.30;;;;;;;;;;5023130;28;20037;-81
2022/02/11 13:26:29;;;;;;;0.25;0.25;;;;;;;;;;5007211;28;20413;-81
2022/02/11 13:28:56;;;;;;;0.30;0.30;;;;;;;;;;5023444;28;20386;-81
2022/02/11 13:31:22;;;;;;;;;;;;;;;;;;5023735;28;20152;-82
2022/02/11 13:34:02;;;;;;;0.28;0.28;;;;;;;;;;5023900;28;19924;-82
2022/02/11 13:36:28;;;;;;;0.20;0.20;;;;;;;;;;5025365;28;20041;-83
2022/02/11 13:38:54;;;;;;;0.20;0.20;;;;;;;;;;5033227;28;20044;-82
2022/02/11 13:41:28;;;;;;;0.20;0.20;;;;;;;;;;5004890;28;20068;-81
2022/02/11 13:43:54;;;;;;;0.20;0.20;;;;;;;;;;5018818;28;20270;-82
2022/02/11 13:46:27;;;;;;;0.30;0.30;;;;;;;;;;5023603;28;20072;-81
2022/02/11 13:48:54;;;;;;;0.30;0.30;;;;;;;;;;5023405;28;20128;-82
2022/02/11 13:51:21;;;;;;;0.30;0.30;;;;;;;;;;5023628;28;20508;-82
2022/02/11 13:53:53;;;;;;;0.20;0.20;;;;;;;;;;5024317;28;20095;-82
2022/02/11 13:56:36;;;;;;;0.30;0.30;;;;;;;;;;5005414;28;20412;-82
2022/02/11 13:59:09;;;;;;;0.30;0.30;;;;;;;;;;5022486;28;20076;-82
2022/02/11 14:01:57;;;;;;;0.30;0.30;;;;;;;;;;5022990;28;20034;-82
2022/02/11 14:04:23;;;;;;;0.30;0.30;;;;;;;;;;5016908;28;20037;-92
2022/02/11 14:06:50;;;;;;;0.30;0.30;;;;;;;;;;5032053;28;20173;-92
2022/02/11 14:09:16;;;;;;;;;;;;;;;;;;5032577;28;20276;-92
2022/02/11 14:11:42;;;;;;;0.20;0.20;;;;;;;;;;5033696;28;19913;-92
2022/02/11 14:14:19;;;;;;;0.30;0.30;;;;;;;;;;5034973;28;20059;-91
2022/02/11 14:16:47;;;;;;;;;;;;;;;;;;5033005;28;20022;-91
2022/02/11 14:19:24;;;;;;;0.20;0.20;;;;;;;;;;5048447;28;20576;-91
2022/02/11 14:21:53;;;;;;;0.30;0.30;;;;;;;;;;5037970;28;20021;-93
2022/02/11 14:24:20;;;;;;;0.20;0.20;;;;;;;;;;5045131;28;20937;-92
2022/02/11 14:26:47;;;;;;;0.20;0.20;;;;;;;;;;5032956;28;20099;-92
2022/02/11 14:29:14;;;;;;;0.25;0.25;;;;;;;;;;5033730;28;20100;-93
2022/02/11 14:31:41;;;;;;;0.30;0.30;;;;;;;;;;5039102;28;20072;-92
2022/02/11 14:34:07;;;;;;;0.20;0.20;;;;;;;;;;5032740;28;20036;-92
2022/02/11 14:36:35;;;;;;;0.30;0.30;;;;;;;;;;5031088;28;20029;-92
2022/02/11 14:39:01;;;;;;;0.30;0.30;;;;;;;;;;5031316;28;20108;-91
2022/02/11 14:41:46;;;;;;;0.30;0.30;;;;;;;;;;5032724;28;20084;-90
2022/02/11 14:44:13;;;;;;;0.22;0.22;;;;;;;;;;5029695;28;20045;-91
2022/02/11 14:46:39;;;;;;;0.30;0.30;;;;;;;;;;5033694;28;20099;-92
2022/02/11 14:49:05;;;;;;;0.70;0.70;;;;;;;;;;5031532;28;20052;-91
2022/02/11 14:51:33;;;;;;;0.30;0.30;;;;;;;;;;5031057;28;20033;-91
2022/02/11 14:54:02;;;;;;;0.20;0.20;;;;;;;;;;5031274;28;20041;-91
2022/02/11 14:56:28;;;;;;;0.30;0.30;;;;;;;;;;5032679;28;20037;-91
2022/02/11 14:58:54;;;;;;;0.30;0.30;;;;;;;;;;5035814;28;20053;-91
2022/02/11 15:01:20;;;;;;;0.20;0.20;;;;;;;;;;5012403;28;20025;-90
2022/02/11 15:03:46;;;;;;;0.20;0.20;;;;;;;;;;5035577;28;20033;-91
2022/02/11 15:06:12;;;;;;;0.30;0.30;;;;;;;;;;5009394;28;20508;-79
2022/02/11 15:08:38;;;;;;;0.30;0.30;;;;;;;;;;5025641;28;20056;-79
2022/02/11 15:11:04;;;;;;;0.40;0.40;;;;;;;;;;5024605;28;20073;-79
2022/02/11 15:13:30;;;;;;;1.13;1.13;;;;;;;;;;5026645;28;20025;-79
2022/02/11 15:15:56;;;;;;;0.70;0.70;;;;;;;;;;5025217;28;20330;-79
2022/02/11 15:18:22;;;;;;;0.30;0.30;;;;;;;;;;5025428;28;20036;-78
2022/02/11 15:20:48;;;;;;;0.30;0.30;;;;;;;;;;5026837;28;20029;-79
2022/02/11 15:23:14;;;;;;;0.30;0.30;;;;;;;;;;5031865;28;20825;-79
2022/02/11 15:25:40;;;;;;;0.30;0.30;;;;;;;;;;5023888;28;20113;-79
2022/02/11 15:28:07;;;;;;;0.30;0.30;;;;;;;;;;5023121;28;20030;-79
2022/02/11 15:30:33;;;;;;;0.30;0.30;;;;;;;;;;5025292;28;20992;-79
2022/02/11 15:33:00;;;;;;;0.20;0.20;;;;;;;;;;5021537;28;20033;-79
2022/02/11 15:35:29;;;;;;;0.30;0.30;;;;;;;;;;5024186;28;20032;-79
2022/02/11 15:37:55;;;;;;;0.45;0.45;;;;;;;;;;5024060;28;20070;-79
2022/02/11 15:40:23;;;;;;;0.63;0.63;;;;;;;;;;5022994;28;20401;-78
2022/02/11 15:42:50;;;;;;;0.30;0.30;;;;;;;;;;5023451;28;20028;-79
2022/02/11 15:45:16;;;;;;;0.30;0.30;;;;;;;;;;5023030;28;20061;-79
2022/02/11 15:47:43;;;;;;;0.30;0.30;;;;;;;;;;5023858;28;20025;-79
2022/02/11 15:50:09;;;;;;;0.30;0.30;;;;;;;;;;5005922;28;20140;-78
2022/02/11 15:52:35;;;;;;;0.30;0.30;;;;;;;;;;5023685;28;20056;-78
2022/02/11 15:55:01;;;;;;;0.30;0.30;;;;;;;;;;5021998;28;20489;-79
2022/02/11 15:57:27;;;;;;;0.23;0.23;;;;;;;;;;5023141;28;20057;-79
2022/02/11 15:59:54;;;;;;;0.30;0.30;;;;;;;;;;5022643;28;20033;-79
2022/02/11 16:02:21;;;;;;;0.30;0.30;;;;;;;;;;5023436;28;20125;-79
2022/02/11 16:04:47;;;;;;;0.25;0.25;;;;;;;;;;5023412;28;20592;-90
2022/02/11 16:07:13;;;;;;;0.70;0.70;;;;;;;;;;5030591;28;20072;-90
2022/02/11 16:09:39;;;;;;;0.40;0.40;;;;;;;;;;5028433;28;20528;-89
2022/02/11 16:12:06;;;;;;;0.30;0.30;;;;;;;;;;5031498;28;20025;-91
2022/02/11 16:14:33;;;;;;;0.30;0.30;;;;;;;;;;5028615;28;20033;-89
2022/02/11 16:17:02;;;;;;;0.30;0.30;;;;;;;;;;5027007;28;20024;-89
2022/02/11 16:19:28;;;;;;;0.30;0.30;;;;;;;;;;5028993;28;20029;-90
2022/02/11 16:21:55;;;;;;;0.30;0.30;;;;;;;;;;5024990;28;20096;-76
2022/02/11 16:24:21;;;;;;;0.30;0.30;;;;;;;;;;5025705;28;20105;-79
2022/02/11 16:26:47;;;;;;;0.77;0.77;;;;;;;;;;5024390;28;20029;-78
2022/02/11 16:29:13;;;;;;;0.30;0.30;;;;;;;;;;5020406;28;20038;-77
2022/02/11 16:31:39;;;;;;;0.27;0.27;;;;;;;;;;5023610;28;20064;-77
2022/02/11 16:34:05;;;;;;;0.20;0.20;;;;;;;;;;5023635;28;20025;-77
2022/02/11 16:36:36;;;;;;;0.50;0.50;;;;;;;;;;5004812;28;20668;-77
2022/02/11 16:39:02;;;;;;;0.30;0.30;;;;;;;;;;5023115;28;20036;-76
2022/02/11 16:41:28;;;;;;;0.30;0.30;;;;;;;;;;5021531;28;20032;-77
2022/02/11 16:43:54;;;;;;;0.60;0.60;;;;;;;;;;5021388;28;20022;-77
2022/02/11 16:46:21;;;;;;;0.30;0.30;;;;;;;;;;5022931;28;20021;-77
2022/02/11 16:48:47;;;;;;;0.30;0.30;;;;;;;;;;5021079;28;20037;-78
2022/02/11 16:51:13;;;;;;;0.47;0.47;;;;;;;;;;5018852;28;20037;-88
2022/02/11 16:53:39;;;;;;;0.30;0.30;;;;;;;;;;5023414;28;20671;-88
2022/02/11 16:56:05;;;;;;;0.40;0.40;;;;;;;;;;5023900;28;20043;-86
2022/02/11 16:58:31;;;;;;;0.30;0.30;;;;;;;;;;5023902;28;20113;-87
2022/02/11 17:00:57;;;;;;;1.65;1.65;;;;;;;;;;4998541;28;20042;-87
2022/02/11 17:03:23;;;;;;;0.30;0.30;;;;;;;;;;5015277;28;20034;-87
2022/02/11 17:05:49;;;;;;;0.30;0.30;;;;;;;;;;5023641;28;20033;-82
2022/02/11 17:08:15;;;;;;;0.30;0.30;;;;;;;;;;5023338;28;20025;-82
2022/02/11 17:10:42;;;;;;;0.40;0.40;;;;;;;;;;5024178;28;20146;-83
2022/02/11 17:13:08;;;;;;;0.30;0.30;;;;;;;;;;5023550;28;20156;-83
2022/02/11 17:15:35;;;;;;;0.20;0.20;;;;;;;;;;5019604;28;20044;-82
2022/02/11 17:18:01;;;;;;;0.20;0.20;;;;;;;;;;5005598;28;20763;-82
2022/02/11 17:20:28;;;;;;;0.30;0.30;;;;;;;;;;5023340;28;20034;-82
2022/02/11 17:22:54;;;;;;;0.20;0.20;;;;;;;;;;5023744;28;20445;-83
2022/02/11 17:25:20;;;;;;;0.28;0.28;;;;;;;;;;5022783;28;20045;-82
2022/02/11 17:27:46;;;;;;;0.20;0.20;;;;;;;;;;5023455;28;20531;-82
2022/02/11 17:30:13;;;;;;;0.30;0.30;;;;;;;;;;5023995;28;20126;-83
2022/02/11 17:32:39;;;;;;;0.30;0.30;;;;;;;;;;5026082;28;20027;-83
2022/02/11 17:35:06;;;;;;;0.80;0.80;;;;;;;;;;5023707;28;20057;-82
2022/02/11 17:37:33;;;;;;;0.30;0.30;;;;;;;;;;5024181;28;20068;-82
2022/02/11 17:39:59;;;;;;;0.20;0.20;;;;;;;;;;5025781;28;20040;-82
2022/02/11 17:42:26;;;;;;;0.20;0.20;;;;;;;;;;5024350;28;20029;-83
2022/02/11 17:44:52;;;;;;;0.28;0.28;;;;;;;;;;5024004;28;20029;-83
2022/02/11 17:47:18;;;;;;;0.30;0.30;;;;;;;;;;5024021;28;20030;-81
2022/02/11 17:49:46;;;;;;;0.30;0.30;;;;;;;;;;5023307;28;20052;-82
2022/02/11 17:52:13;;;;;;;0.20;0.20;;;;;;;;;;5024079;28;20125;-82
2022/02/11 17:54:39;;;;;;;0.30;0.30;;;;;;;;;;5023957;28;20111;-81
2022/02/11 17:57:36;;;;;;;0.20;0.20;;;;;;;;;;5023714;28;20697;-82
2022/02/11 18:00:04;;;;;;;0.50;0.50;;;;;;;;;;5012308;28;20037;-81
2022/02/11 18:02:33;;;;;;;0.57;0.57;;;;;;;;;;5025834;28;20040;-81
2022/02/11 18:04:59;;;;;;;0.20;0.20;;;;;;;;;;5019320;28;20029;-82
2022/02/11 18:07:25;;;;;;;0.40;0.40;;;;;;;;;;5024286;28;20040;-82
2022/02/11 18:09:51;;;;;;;0.77;0.77;;;;;;;;;;5002762;28;20469;-82
2022/02/11 18:12:20;;;;;;;0.40;0.40;;;;;;;;;;5014464;28;20108;-82
2022/02/11 18:14:46;;;;;;;0.30;0.30;;;;;;;;;;5007697;28;20023;-82
2022/02/11 18:17:12;;;;;;;0.60;0.60;;;;;;;;;;5023503;28;20497;-81
2022/02/11 18:19:38;;;;;;;0.40;0.40;;;;;;;;;;5019086;28;20037;-82
2022/02/11 18:22:05;;;;;;;0.32;0.32;;;;;;;;;;5017173;28;20029;-83
2022/02/11 18:24:31;;;;;;;0.30;0.30;;;;;;;;;;5010990;28;20099;-82
2022/02/11 18:26:57;;;;;;;0.30;0.30;;;;;;;;;;5015870;28;20030;-82
2022/02/11 18:29:23;;;;;;;0.30;0.30;;;;;;;;;;5011521;28;20104;-88
2022/02/11 18:31:50;;;;;;;0.30;0.30;;;;;;;;;;5039656;28;20234;-86
2022/02/11 18:34:16;;;;;;;0.20;0.20;;;;;;;;;;5038910;28;20630;-83
2022/02/11 18:36:42;;;;;;;0.20;0.20;;;;;;;;;;5037854;28;20029;-86
2022/02/11 18:39:10;;;;;;;0.30;0.30;;;;;;;;;;5038725;28;20029;-81
2022/02/11 18:41:37;;;;;;;0.20;0.20;;;;;;;;;;5037404;28;20428;-83
2022/02/11 18:44:03;;;;;;;0.20;0.20;;;;;;;;;;5041494;28;20458;-88
2022/02/11 18:46:29;;;;;;;0.20;0.20;;;;;;;;;;5033377;28;20466;-89